Jyllinge, Denmark
Current Conditions -  °F | °C
As of 9:50 AM on Saturday 22 Nov 2014 (Local Time) from EKRK Reporting Station
Broken Clouds Broken Clouds  
Wind Chill: 38°   Ceiling: 1000
Heat Index: 43°   Visibility: 5mi
Dew Point: 43°   Wind: 8mph
Humidity: 100%   Direction: 190°S
Pressure: 30.27"   Gusts: NA
Location:  55.76°N, 12.11°E
Report Text: EKRK 220850Z AUTO 19007KT 8000NDV FEW006/// SCT008///BKN010/// BKN014/// 06/06 Q1025
Loading
Personal Weather Stations






























Interactive Weather Map New forecast layout! Learn more

10-Day Weather Forecast

Advertisements
Track Severe Weather on mobile